Time;durP1;ratioP1;P1;durP2;ratioP2;P2;SDS_P1;SDS_P2;PMS_P1;PMS_P2;Temp;Humidity;BMP_temperature;BMP_pressure;BME280_temperature;BME280_humidity;BME280_pressure;Samples;Min_cycle;Max_cycle;Signal;HPM_P1;HPM_P2
2022/09/06 00:01:09;;;;;;;0.00;0.00;;;19.80;99.90;;;;;;4996576;28;20221;-71
2022/09/06 00:03:36;;;;;;;0.00;0.00;;;19.70;99.90;;;;;;5006336;28;20211;-71
2022/09/06 00:06:10;;;;;;;0.00;0.00;;;19.70;99.90;;;;;;4991630;28;20334;-71
2022/09/06 00:08:37;;;;;;;0.00;0.00;;;19.60;99.90;;;;;;4992820;28;20911;-70
2022/09/06 00:11:04;;;;;;;0.00;0.00;;;19.60;99.90;;;;;;4998412;28;20196;-71
2022/09/06 00:13:31;;;;;;;0.00;0.00;;;19.60;99.90;;;;;;4995537;28;20247;-70
2022/09/06 00:16:05;;;;;;;0.00;0.00;;;19.60;99.90;;;;;;4999469;28;20247;-72
2022/09/06 00:18:33;;;;;;;0.00;0.00;;;19.60;99.90;;;;;;4998682;28;20197;-72
2022/09/06 00:20:59;;;;;;;0.00;0.00;;;19.60;99.90;;;;;;5009175;28;20224;-72
2022/09/06 00:23:26;;;;;;;0.00;0.00;;;19.60;99.90;;;;;;4994722;28;20296;-70
2022/09/06 00:25:53;;;;;;;0.00;0.00;;;19.50;99.90;;;;;;5010914;28;20307;-70
2022/09/06 00:28:20;;;;;;;0.00;0.00;;;19.50;99.90;;;;;;4990308;28;20212;-70
2022/09/06 00:30:47;;;;;;;0.00;0.00;;;19.50;99.90;;;;;;4991523;28;20193;-71
2022/09/06 00:33:14;;;;;;;0.00;0.00;;;19.50;99.90;;;;;;5008675;28;20239;-70
2022/09/06 00:35:43;;;;;;;0.00;0.00;;;19.40;99.90;;;;;;4987626;28;20248;-70
2022/09/06 00:38:10;;;;;;;0.00;0.00;;;19.40;99.90;;;;;;4996638;28;20208;-70
2022/09/06 00:40:36;;;;;;;0.00;0.00;;;19.40;99.90;;;;;;4991634;28;20221;-71
2022/09/06 00:43:03;;;;;;;0.00;0.00;;;19.40;99.90;;;;;;4994177;28;20260;-71
2022/09/06 00:45:31;;;;;;;0.00;0.00;;;19.30;99.90;;;;;;4992498;28;20263;-71
2022/09/06 00:48:01;;;;;;;0.00;0.00;;;19.30;99.90;;;;;;5004404;28;20263;-71
2022/09/06 00:50:28;;;;;;;0.00;0.00;;;19.30;99.90;;;;;;4993176;28;20268;-71
2022/09/06 00:52:57;;;;;;;0.00;0.00;;;19.20;99.90;;;;;;4992760;28;20263;-70
2022/09/06 00:55:25;;;;;;;0.00;0.00;;;19.20;99.90;;;;;;4989421;28;20659;-71
2022/09/06 00:57:52;;;;;;;0.00;0.00;;;19.10;99.90;;;;;;4998756;28;20204;-72
2022/09/06 01:00:20;;;;;;;0.00;0.00;;;19.00;99.90;;;;;;4988971;28;20751;-71
2022/09/06 01:02:47;;;;;;;0.00;0.00;;;18.90;99.90;;;;;;4995176;28;20201;-71
2022/09/06 01:05:15;;;;;;;0.00;0.00;;;18.90;99.90;;;;;;5008236;28;20247;-71
2022/09/06 01:07:55;;;;;;;0.00;0.00;;;18.90;99.90;;;;;;4998218;28;20249;-71
2022/09/06 01:11:04;;;;;;;0.00;0.00;;;18.90;99.90;;;;;;5006750;28;20196;-71
2022/09/06 01:13:42;;;;;;;0.00;0.00;;;18.90;99.90;;;;;;4915109;29;20207;-73
2022/09/06 01:16:17;;;;;;;0.00;0.00;;;18.90;99.90;;;;;;4921306;29;20226;-71
2022/09/06 01:19:00;;;;;;;0.00;0.00;;;18.80;99.90;;;;;;4961673;28;20211;-71
2022/09/06 01:21:41;;;;;;;0.00;0.00;;;18.80;99.90;;;;;;4984721;28;20233;-71
2022/09/06 01:24:42;;;;;;;0.00;0.00;;;18.80;99.90;;;;;;5009532;28;20254;-72
2022/09/06 01:27:44;;;;;;;0.00;0.00;;;18.70;99.90;;;;;;4988477;28;20223;-71
2022/09/06 01:30:14;;;;;;;0.00;0.00;;;18.70;99.90;;;;;;4987787;28;20204;-71
2022/09/06 01:32:50;;;;;;;0.00;0.00;;;18.70;99.90;;;;;;4993870;28;20821;-71
2022/09/06 01:35:21;;;;;;;0.00;0.00;;;;;;;;;;4996116;28;20257;-71
2022/09/06 01:37:49;;;;;;;0.00;0.00;;;18.70;99.90;;;;;;4991353;28;20655;-71
2022/09/06 01:40:15;;;;;;;0.00;0.00;;;18.50;99.90;;;;;;4996841;28;20208;-71
2022/09/06 01:42:46;;;;;;;0.00;0.00;;;18.40;99.90;;;;;;4997492;28;20295;-71
2022/09/06 01:45:16;;;;;;;0.00;0.00;;;18.40;99.90;;;;;;5005243;28;20251;-71
2022/09/06 01:47:54;;;;;;;0.00;0.00;;;18.40;99.90;;;;;;4997762;28;20208;-70
2022/09/06 01:50:38;;;;;;;0.00;0.00;;;18.40;99.90;;;;;;4996290;28;20204;-71
2022/09/06 01:53:16;;;;;;;0.00;0.00;;;18.30;99.90;;;;;;4995678;28;20208;-71
2022/09/06 01:55:52;;;;;;;0.00;0.00;;;18.20;99.90;;;;;;4996672;28;20254;-72
2022/09/06 01:58:41;;;;;;;0.00;0.00;;;18.20;99.90;;;;;;5013773;28;20674;-71
2022/09/06 02:01:17;;;;;;;0.00;0.00;;;18.10;99.90;;;;;;5009233;28;20224;-71
2022/09/06 02:03:52;;;;;;;0.00;0.00;;;18.10;99.90;;;;;;4991627;28;20219;-71
2022/09/06 02:06:25;;;;;;;0.00;0.00;;;18.10;99.90;;;;;;4987597;28;20701;-71
2022/09/06 02:08:57;;;;;;;0.00;0.00;;;18.00;99.90;;;;;;4993859;28;20789;-71
2022/09/06 02:11:27;;;;;;;0.00;0.00;;;18.00;99.90;;;;;;4990018;28;20580;-71
2022/09/06 02:14:00;;;;;;;0.00;0.00;;;18.00;99.90;;;;;;4998163;28;20197;-70
2022/09/06 02:16:32;;;;;;;0.00;0.00;;;18.00;99.90;;;;;;4993735;28;20215;-70
2022/09/06 02:19:01;;;;;;;0.00;0.00;;;;;;;;;;4996497;28;20216;-70
2022/09/06 02:21:31;;;;;;;0.00;0.00;;;18.00;99.90;;;;;;4988493;28;20224;-71
2022/09/06 02:24:02;;;;;;;0.00;0.00;;;17.90;99.90;;;;;;4985505;28;20211;-71
2022/09/06 02:26:31;;;;;;;0.00;0.00;;;;;;;;;;4988072;28;20204;-70
2022/09/06 02:29:00;;;;;;;0.00;0.00;;;;;;;;;;4995784;28;20204;-71
2022/09/06 02:31:30;;;;;;;0.00;0.00;;;;;;;;;;4989172;28;20201;-71
2022/09/06 02:33:59;;;;;;;0.00;0.00;;;;;;;;;;4991303;28;20220;-71
2022/09/06 02:36:26;;;;;;;0.00;0.00;;;;;;;;;;4989991;28;20208;-71
2022/09/06 02:38:54;;;;;;;0.00;0.00;;;17.80;99.90;;;;;;4986213;28;20292;-71
2022/09/06 02:41:22;;;;;;;0.00;0.00;;;;;;;;;;5002709;28;20227;-70
2022/09/06 02:43:50;;;;;;;0.00;0.00;;;;;;;;;;4992087;28;20320;-70
2022/09/06 02:46:19;;;;;;;0.00;0.00;;;;;;;;;;4999015;28;20225;-71
2022/09/06 02:48:47;;;;;;;0.00;0.00;;;;;;;;;;4989303;28;20220;-71
2022/09/06 02:51:14;;;;;;;0.00;0.00;;;;;;;;;;4989106;28;20211;-71
2022/09/06 02:53:42;;;;;;;0.00;0.00;;;;;;;;;;4987892;28;20212;-71
2022/09/06 02:56:09;;;;;;;0.00;0.00;;;;;;;;;;4988933;28;20271;-70
2022/09/06 02:58:36;;;;;;;0.00;0.00;;;;;;;;;;4991833;28;20196;-70
2022/09/06 03:01:04;;;;;;;0.00;0.00;;;;;;;;;;5003070;28;20300;-70
2022/09/06 03:03:33;;;;;;;0.00;0.00;;;;;;;;;;4997872;28;20220;-71
2022/09/06 03:06:00;;;;;;;0.00;0.00;;;;;;;;;;5003524;28;20223;-71
2022/09/06 03:08:32;;;;;;;0.00;0.00;;;;;;;;;;4989620;28;20202;-71
2022/09/06 03:11:00;;;;;;;0.00;0.00;;;17.40;99.90;;;;;;4988891;28;20213;-71
2022/09/06 03:13:28;;;;;;;0.00;0.00;;;17.40;99.90;;;;;;4993113;28;20295;-70
2022/09/06 03:15:57;;;;;;;0.00;0.00;;;;;;;;;;4993877;28;20225;-73
2022/09/06 03:18:27;;;;;;;0.00;0.00;;;;;;;;;;4986664;28;20204;-70
2022/09/06 03:20:57;;;;;;;0.00;0.00;;;17.20;99.90;;;;;;4993612;28;20197;-71
2022/09/06 03:23:26;;;;;;;0.00;0.00;;;17.20;99.90;;;;;;4982540;28;20200;-71
2022/09/06 03:25:53;;;;;;;0.00;0.00;;;17.20;99.90;;;;;;4990048;28;20298;-72
2022/09/06 03:28:21;;;;;;;0.00;0.00;;;17.20;99.90;;;;;;4986526;28;20765;-70
2022/09/06 03:30:49;;;;;;;0.00;0.00;;;;;;;;;;4985307;28;20251;-70
2022/09/06 03:33:19;;;;;;;0.00;0.00;;;;;;;;;;4993056;28;20213;-70
2022/09/06 03:35:50;;;;;;;0.00;0.00;;;17.00;99.90;;;;;;4991643;28;20232;-70
2022/09/06 03:38:19;;;;;;;0.00;0.00;;;17.00;99.90;;;;;;4989285;28;20204;-72
2022/09/06 03:40:47;;;;;;;0.00;0.00;;;16.90;99.90;;;;;;4993639;28;20197;-71
2022/09/06 03:43:15;;;;;;;0.00;0.00;;;16.90;99.90;;;;;;4993350;28;20302;-71
2022/09/06 03:45:46;;;;;;;0.00;0.00;;;16.80;99.90;;;;;;4988462;28;20255;-72
2022/09/06 03:48:14;;;;;;;0.00;0.00;;;16.90;99.90;;;;;;4993316;28;20209;-71
2022/09/06 03:50:44;;;;;;;0.00;0.00;;;16.90;99.90;;;;;;4994800;28;20747;-71
2022/09/06 03:53:11;;;;;;;0.00;0.00;;;16.90;99.90;;;;;;4988802;28;20215;-71
2022/09/06 03:55:39;;;;;;;0.00;0.00;;;16.90;99.90;;;;;;4990050;28;20758;-71
2022/09/06 03:58:06;;;;;;;0.00;0.00;;;16.80;99.90;;;;;;5007837;28;20286;-71
2022/09/06 04:00:33;;;;;;;0.00;0.00;;;16.80;99.90;;;;;;4993447;28;20200;-72
2022/09/06 04:03:00;;;;;;;0.00;0.00;;;16.80;99.90;;;;;;4998321;28;20220;-72
2022/09/06 04:05:27;;;;;;;0.00;0.00;;;16.80;99.90;;;;;;4995808;28;20282;-72
2022/09/06 04:07:54;;;;;;;0.00;0.00;;;16.80;99.90;;;;;;5003095;28;20205;-71
2022/09/06 04:10:21;;;;;;;0.00;0.00;;;16.80;99.90;;;;;;4994953;28;20237;-70
2022/09/06 04:12:50;;;;;;;0.00;0.00;;;16.80;99.90;;;;;;4993646;28;20289;-71
2022/09/06 04:15:17;;;;;;;0.00;0.00;;;16.80;99.90;;;;;;4997393;28;20231;-72
2022/09/06 04:17:45;;;;;;;0.00;0.00;;;16.80;99.90;;;;;;4994054;28;20207;-71
2022/09/06 04:20:12;;;;;;;0.00;0.00;;;16.80;99.90;;;;;;4994759;28;20212;-71
2022/09/06 04:22:39;;;;;;;0.00;0.00;;;16.80;99.90;;;;;;4992334;28;20225;-72
2022/09/06 04:25:08;;;;;;;0.00;0.00;;;16.90;99.90;;;;;;4995825;28;20232;-72
2022/09/06 04:27:35;;;;;;;0.00;0.00;;;16.80;99.90;;;;;;5008394;28;20283;-72
2022/09/06 04:30:04;;;;;;;0.00;0.00;;;16.80;99.90;;;;;;4987416;28;20197;-71
2022/09/06 04:32:31;;;;;;;0.00;0.00;;;16.80;99.90;;;;;;5008717;28;20197;-72
2022/09/06 04:34:58;;;;;;;0.00;0.00;;;16.80;99.90;;;;;;4990944;28;20220;-71
2022/09/06 04:37:26;;;;;;;0.00;0.00;;;16.70;99.90;;;;;;5007677;28;20228;-72
2022/09/06 04:39:53;;;;;;;0.00;0.00;;;16.70;99.90;;;;;;4992281;28;20215;-71
2022/09/06 04:42:19;;;;;;;0.00;0.00;;;16.80;99.90;;;;;;5014922;28;20746;-71
2022/09/06 04:44:46;;;;;;;0.00;0.00;;;16.70;99.90;;;;;;4992316;28;20587;-71
2022/09/06 04:47:18;;;;;;;0.00;0.00;;;16.70;99.90;;;;;;5008734;28;20223;-71
2022/09/06 04:49:47;;;;;;;0.00;0.00;;;16.70;99.90;;;;;;4995085;28;20219;-72
2022/09/06 04:52:13;;;;;;;0.00;0.00;;;16.80;99.90;;;;;;4994190;28;20279;-71
2022/09/06 04:54:40;;;;;;;0.00;0.00;;;16.80;99.90;;;;;;5015395;28;20255;-71
2022/09/06 04:57:08;;;;;;;0.00;0.00;;;16.80;99.90;;;;;;5012208;28;20254;-70
2022/09/06 04:59:35;;;;;;;0.00;0.00;;;16.70;99.90;;;;;;4994642;28;20208;-71
2022/09/06 05:02:03;;;;;;;0.00;0.00;;;16.70;99.90;;;;;;4991756;28;20252;-71
2022/09/06 05:04:32;;;;;;;0.00;0.00;;;16.70;99.90;;;;;;4992490;28;20228;-71
2022/09/06 05:07:03;;;;;;;0.00;0.00;;;16.70;99.90;;;;;;4990171;28;20231;-70
2022/09/06 05:09:31;;;;;;;0.00;0.00;;;16.70;99.90;;;;;;4994507;28;20291;-72
2022/09/06 05:11:58;;;;;;;0.00;0.00;;;16.70;99.90;;;;;;4993037;28;20193;-71
2022/09/06 05:14:26;;;;;;;0.00;0.00;;;16.70;99.90;;;;;;4997328;28;20295;-71
2022/09/06 05:16:53;;;;;;;0.00;0.00;;;16.70;99.90;;;;;;4998755;28;20211;-71
2022/09/06 05:19:20;;;;;;;0.00;0.00;;;16.70;99.90;;;;;;4997900;28;20213;-71
2022/09/06 05:21:51;;;;;;;0.00;0.00;;;16.70;99.90;;;;;;4993033;28;20206;-71
2022/09/06 05:24:18;;;;;;;0.00;0.00;;;16.80;99.90;;;;;;4989873;28;20212;-71
2022/09/06 05:26:45;;;;;;;0.00;0.00;;;16.80;99.90;;;;;;4990699;28;20258;-72
2022/09/06 05:29:12;;;;;;;0.00;0.00;;;16.80;99.90;;;;;;4997471;28;20275;-72
2022/09/06 05:31:39;;;;;;;0.00;0.00;;;16.80;99.90;;;;;;4988218;28;20209;-72
2022/09/06 05:34:06;;;;;;;0.00;0.00;;;16.80;99.90;;;;;;5006927;28;20197;-72
2022/09/06 05:36:34;;;;;;;0.00;0.00;;;16.80;99.90;;;;;;4998522;28;20204;-71
2022/09/06 05:39:02;;;;;;;0.00;0.00;;;16.80;99.90;;;;;;5005282;28;20551;-72
2022/09/06 05:41:29;;;;;;;0.00;0.00;;;16.90;99.90;;;;;;5001059;28;20204;-71
2022/09/06 05:43:56;;;;;;;0.00;0.00;;;16.90;99.90;;;;;;5004883;28;20216;-73
2022/09/06 05:46:23;;;;;;;0.00;0.00;;;16.80;99.90;;;;;;4999166;28;20220;-72
2022/09/06 05:48:54;;;;;;;0.00;0.00;;;16.80;99.90;;;;;;4991537;28;20201;-73
2022/09/06 05:51:21;;;;;;;0.10;0.10;;;16.80;99.90;;;;;;4998056;28;20205;-72
2022/09/06 05:53:48;;;;;;;0.00;0.00;;;16.80;99.90;;;;;;4999264;28;20396;-71
2022/09/06 05:56:17;;;;;;;0.00;0.00;;;16.80;99.90;;;;;;4995324;28;20243;-72
2022/09/06 05:58:44;;;;;;;0.00;0.00;;;16.80;99.90;;;;;;4993702;28;20656;-71
2022/09/06 06:01:15;;;;;;;0.00;0.00;;;16.90;99.90;;;;;;4994626;28;20210;-71
2022/09/06 06:03:43;;;;;;;0.00;0.00;;;16.90;99.90;;;;;;4989204;28;20232;-71
2022/09/06 06:06:10;;;;;;;0.00;0.00;;;16.90;99.90;;;;;;5005940;28;20232;-72
2022/09/06 06:08:37;;;;;;;0.00;0.00;;;17.00;99.90;;;;;;4998130;28;20204;-72
2022/09/06 06:11:04;;;;;;;0.00;0.00;;;17.10;99.90;;;;;;4991713;28;20296;-72
2022/09/06 06:13:38;;;;;;;0.00;0.00;;;17.10;99.90;;;;;;4991663;28;20690;-71
2022/09/06 06:16:05;;;;;;;0.00;0.00;;;17.20;99.90;;;;;;4996081;28;20220;-71
2022/09/06 06:18:33;;;;;;;0.00;0.00;;;17.20;99.90;;;;;;4991479;28;20208;-71
2022/09/06 06:21:11;;;;;;;0.00;0.00;;;17.30;99.90;;;;;;4994862;28;20200;-72
2022/09/06 06:23:38;;;;;;;0.00;0.00;;;17.30;99.90;;;;;;4988472;28;20234;-72
2022/09/06 06:26:06;;;;;;;0.00;0.00;;;17.30;99.90;;;;;;5007567;28;20216;-72
2022/09/06 06:28:35;;;;;;;0.00;0.00;;;17.40;99.90;;;;;;5015693;28;20259;-71
2022/09/06 06:31:02;;;;;;;0.00;0.00;;;17.40;99.90;;;;;;4995426;28;20211;-71
2022/09/06 06:33:29;;;;;;;0.00;0.00;;;17.50;99.90;;;;;;4992292;28;20622;-71
2022/09/06 06:35:58;;;;;;;0.00;0.00;;;17.50;99.90;;;;;;4982167;28;20228;-73
2022/09/06 06:38:29;;;;;;;0.00;0.00;;;17.50;99.90;;;;;;4986089;28;20211;-72
2022/09/06 06:40:56;;;;;;;0.00;0.00;;;17.60;99.90;;;;;;5014639;28;20220;-72
2022/09/06 06:43:23;;;;;;;0.00;0.00;;;17.60;99.90;;;;;;4985888;28;20216;-72
2022/09/06 06:45:51;;;;;;;0.00;0.00;;;17.60;99.90;;;;;;4995554;28;20220;-72
2022/09/06 06:48:18;;;;;;;0.00;0.00;;;17.60;99.90;;;;;;4994681;28;20209;-72
2022/09/06 06:50:45;;;;;;;0.00;0.00;;;17.60;99.90;;;;;;4994009;28;20229;-71
2022/09/06 06:53:13;;;;;;;0.00;0.00;;;17.70;99.90;;;;;;4994087;28;20196;-72
2022/09/06 06:55:45;;;;;;;0.00;0.00;;;17.70;99.90;;;;;;4987395;28;20283;-71
2022/09/06 06:58:12;;;;;;;0.00;0.00;;;17.80;99.90;;;;;;4991147;28;20205;-71
2022/09/06 07:00:39;;;;;;;0.00;0.00;;;17.90;99.90;;;;;;5006435;28;20201;-72
2022/09/06 07:03:08;;;;;;;0.00;0.00;;;18.00;99.90;;;;;;4990714;28;20316;-71
2022/09/06 07:05:35;;;;;;;0.00;0.00;;;18.20;99.90;;;;;;5005068;28;20224;-72
2022/09/06 07:08:03;;;;;;;0.00;0.00;;;18.30;99.90;;;;;;4988947;28;20204;-72
2022/09/06 07:10:30;;;;;;;0.00;0.00;;;18.30;99.90;;;;;;4992947;28;20233;-72
2022/09/06 07:12:57;;;;;;;0.00;0.00;;;18.30;99.90;;;;;;5003346;28;20198;-72
2022/09/06 07:15:26;;;;;;;0.00;0.00;;;18.20;99.90;;;;;;5003521;28;20225;-71
2022/09/06 07:17:55;;;;;;;0.00;0.00;;;18.20;99.90;;;;;;4990720;28;20201;-72
2022/09/06 07:20:25;;;;;;;0.00;0.00;;;18.20;99.90;;;;;;5000453;28;20193;-72
2022/09/06 07:22:59;;;;;;;0.00;0.00;;;18.10;99.90;;;;;;5009114;28;20220;-71
2022/09/06 07:25:28;;;;;;;0.00;0.00;;;18.20;99.90;;;;;;4995911;28;20235;-72
2022/09/06 07:28:00;;;;;;;0.00;0.00;;;18.20;99.90;;;;;;4993093;28;20204;-71
2022/09/06 07:30:28;;;;;;;0.00;0.00;;;18.20;99.90;;;;;;4990101;28;20232;-72
2022/09/06 07:32:55;;;;;;;0.00;0.00;;;18.30;99.90;;;;;;4991117;28;20258;-71
2022/09/06 07:35:25;;;;;;;0.00;0.00;;;18.20;99.90;;;;;;4993511;28;20232;-71
2022/09/06 07:37:53;;;;;;;0.00;0.00;;;18.30;99.90;;;;;;5010253;28;20202;-71
2022/09/06 07:40:21;;;;;;;0.00;0.00;;;18.30;99.90;;;;;;5004784;28;20206;-72
2022/09/06 07:42:48;;;;;;;0.00;0.00;;;18.30;99.90;;;;;;5001179;28;20259;-71
2022/09/06 07:45:16;;;;;;;0.00;0.00;;;18.20;99.90;;;;;;5020207;28;20224;-71
2022/09/06 07:47:44;;;;;;;0.00;0.00;;;18.20;99.90;;;;;;4998205;28;20702;-72
2022/09/06 07:50:11;;;;;;;0.00;0.00;;;18.20;99.90;;;;;;4994205;28;20219;-72
2022/09/06 07:52:40;;;;;;;0.00;0.00;;;18.30;99.90;;;;;;5000369;28;20674;-72
2022/09/06 07:55:08;;;;;;;0.00;0.00;;;18.40;99.90;;;;;;4999068;28;20227;-71
2022/09/06 07:57:35;;;;;;;0.00;0.00;;;18.40;99.90;;;;;;4996165;28;20232;-72
2022/09/06 08:00:04;;;;;;;0.00;0.00;;;18.40;99.90;;;;;;5002453;28;20203;-72
2022/09/06 08:02:39;;;;;;;0.00;0.00;;;18.50;99.90;;;;;;5015207;28;20235;-72
2022/09/06 08:05:08;;;;;;;0.00;0.00;;;18.60;99.90;;;;;;4998432;28;20220;-72
2022/09/06 08:07:35;;;;;;;0.00;0.00;;;18.60;99.90;;;;;;4993739;28;20726;-72
2022/09/06 08:10:04;;;;;;;0.00;0.00;;;18.70;99.90;;;;;;4997529;28;20262;-72
2022/09/06 08:12:31;;;;;;;0.00;0.00;;;18.70;99.90;;;;;;4987734;28;20229;-72
2022/09/06 08:14:58;;;;;;;0.00;0.00;;;18.90;99.90;;;;;;4995026;28;20312;-71
2022/09/06 08:17:25;;;;;;;0.00;0.00;;;19.10;99.90;;;;;;5003446;28;20211;-71
2022/09/06 08:19:51;;;;;;;0.00;0.00;;;19.20;99.90;;;;;;4998915;28;20283;-71
2022/09/06 08:22:18;;;;;;;0.00;0.00;;;19.40;99.90;;;;;;4991359;28;20216;-73
2022/09/06 08:24:45;;;;;;;0.00;0.00;;;19.50;99.90;;;;;;4998006;28;20224;-72
2022/09/06 08:27:14;;;;;;;0.00;0.00;;;19.50;99.90;;;;;;4993017;28;20287;-71
2022/09/06 08:29:41;;;;;;;0.00;0.00;;;19.50;99.90;;;;;;5008905;28;20209;-72
2022/09/06 08:32:07;;;;;;;0.00;0.00;;;19.60;99.90;;;;;;4992345;28;20199;-71
2022/09/06 08:34:34;;;;;;;0.00;0.00;;;19.60;99.90;;;;;;4993465;28;20231;-73
2022/09/06 08:37:01;;;;;;;0.00;0.00;;;19.50;99.90;;;;;;4995736;28;20290;-73
2022/09/06 08:39:28;;;;;;;0.00;0.00;;;19.60;99.90;;;;;;5011429;28;20211;-72
2022/09/06 08:41:59;;;;;;;0.00;0.00;;;19.50;99.90;;;;;;4991734;28;20201;-71
2022/09/06 08:44:31;;;;;;;0.00;0.00;;;19.50;99.90;;;;;;4985023;28;20224;-72
2022/09/06 08:47:00;;;;;;;0.00;0.00;;;19.50;99.90;;;;;;5013050;28;20223;-71
2022/09/06 08:49:31;;;;;;;0.00;0.00;;;19.50;99.90;;;;;;4992106;28;20577;-71
2022/09/06 08:52:45;;;;;;;0.00;0.00;;;19.50;99.90;;;;;;4993525;28;20209;-71
2022/09/06 08:55:28;;;;;;;0.00;0.00;;;19.50;99.90;;;;;;4907861;29;20236;-70
2022/09/06 08:58:06;;;;;;;0.00;0.00;;;19.50;99.90;;;;;;4975089;28;20215;-72
2022/09/06 09:00:36;;;;;;;0.00;0.00;;;19.50;99.90;;;;;;5009971;28;20221;-72
2022/09/06 09:03:09;;;;;;;0.00;0.00;;;19.50;99.90;;;;;;4999348;28;20289;-71
2022/09/06 09:05:38;;;;;;;0.00;0.00;;;19.50;99.90;;;;;;4992755;28;20225;-71
2022/09/06 09:08:13;;;;;;;0.00;0.00;;;19.40;99.90;;;;;;5008566;28;20195;-72
2022/09/06 09:10:44;;;;;;;0.00;0.00;;;19.40;99.90;;;;;;4996430;28;20201;-71
2022/09/06 09:13:22;;;;;;;0.00;0.00;;;19.40;99.90;;;;;;4999498;28;20224;-71
2022/09/06 09:15:50;;;;;;;0.00;0.00;;;19.40;99.90;;;;;;4997803;28;20225;-71
2022/09/06 09:18:21;;;;;;;0.00;0.00;;;19.50;99.90;;;;;;4990930;28;20224;-71
2022/09/06 09:20:48;;;;;;;0.00;0.00;;;19.60;99.90;;;;;;5008772;28;20324;-71
2022/09/06 09:23:15;;;;;;;0.00;0.00;;;19.80;99.90;;;;;;4988658;28;20216;-71
2022/09/06 09:25:45;;;;;;;0.00;0.00;;;20.10;99.90;;;;;;4990601;28;20231;-72
2022/09/06 09:28:17;;;;;;;0.00;0.00;;;20.40;99.90;;;;;;4993710;28;20578;-71
2022/09/06 09:30:51;;;;;;;0.00;0.00;;;20.60;99.90;;;;;;4989314;28;20304;-71
2022/09/06 09:33:24;;;;;;;0.00;0.00;;;20.90;99.90;;;;;;4993433;28;20199;-71
2022/09/06 09:35:51;;;;;;;0.00;0.00;;;21.00;99.90;;;;;;4988765;28;20306;-72
2022/09/06 09:38:23;;;;;;;0.00;0.00;;;;;;;;;;4991241;28;20193;-72
2022/09/06 09:40:51;;;;;;;0.00;0.00;;;;;;;;;;4995766;28;20251;-71
2022/09/06 09:43:20;;;;;;;0.00;0.00;;;;;;;;;;4993303;28;20263;-71
2022/09/06 09:45:57;;;;;;;0.00;0.00;;;;;;;;;;4994241;28;20288;-72
2022/09/06 09:48:27;;;;;;;0.00;0.00;;;;;;;;;;4997697;28;20200;-71
2022/09/06 09:50:55;;;;;;;0.00;0.00;;;;;;;;;;4994076;28;20281;-72
2022/09/06 09:53:24;;;;;;;0.00;0.00;;;;;;;;;;4998394;28;20196;-72
2022/09/06 09:55:56;;;;;;;0.00;0.00;;;;;;;;;;4993963;28;20311;-71
2022/09/06 09:58:30;;;;;;;0.00;0.00;;;;;;;;;;4990108;28;20250;-71
2022/09/06 10:01:17;;;;;;;0.00;0.00;;;22.40;99.90;;;;;;4991330;28;20208;-71
2022/09/06 10:03:46;;;;;;;0.00;0.00;;;22.40;99.90;;;;;;4984084;28;20235;-71
2022/09/06 10:06:14;;;;;;;0.00;0.00;;;22.40;99.90;;;;;;5007998;28;20220;-72
2022/09/06 10:08:43;;;;;;;0.00;0.00;;;;;;;;;;4997637;28;20205;-71
2022/09/06 10:11:13;;;;;;;0.00;0.00;;;22.50;99.90;;;;;;5006251;28;20247;-71
2022/09/06 10:13:42;;;;;;;0.00;0.00;;;;;;;;;;4989738;28;20220;-72
2022/09/06 10:16:09;;;;;;;0.00;0.00;;;;;;;;;;4987706;28;20221;-72
2022/09/06 10:18:37;;;;;;;0.00;0.00;;;;;;;;;;5006839;28;20203;-72
2022/09/06 10:21:07;;;;;;;0.00;0.00;;;;;;;;;;4991618;28;20202;-71
2022/09/06 10:23:42;;;;;;;0.00;0.00;;;;;;;;;;4988268;28;20224;-71
2022/09/06 10:26:10;;;;;;;0.00;0.00;;;;;;;;;;4988057;28;20233;-71
2022/09/06 10:28:40;;;;;;;0.00;0.00;;;;;;;;;;4992072;28;20200;-70
2022/09/06 10:31:26;;;;;;;0.00;0.00;;;;;;;;;;4985160;28;20204;-71
2022/09/06 10:34:00;;;;;;;0.00;0.00;;;;;;;;;;4990435;28;20196;-71
2022/09/06 10:36:32;;;;;;;0.00;0.00;;;;;;;;;;4995168;28;20204;-72
2022/09/06 10:39:01;;;;;;;0.00;0.00;;;;;;;;;;5006730;28;20250;-71
2022/09/06 10:41:46;;;;;;;0.00;0.00;;;;;;;;;;4997030;28;20210;-71
2022/09/06 10:44:19;;;;;;;0.00;0.00;;;;;;;;;;4989166;28;20227;-71
2022/09/06 10:46:48;;;;;;;0.00;0.00;;;;;;;;;;4992467;28;20297;-72
2022/09/06 10:49:18;;;;;;;0.00;0.00;;;;;;;;;;4997323;28;20200;-71
2022/09/06 10:51:49;;;;;;;0.00;0.00;;;;;;;;;;4991708;28;20203;-71
2022/09/06 10:54:20;;;;;;;0.00;0.00;;;24.00;99.90;;;;;;4992586;28;20383;-71
2022/09/06 10:56:51;;;;;;;0.00;0.00;;;;;;;;;;4986952;28;20271;-71
2022/09/06 10:59:21;;;;;;;0.00;0.00;;;;;;;;;;4988860;28;20224;-70
2022/09/06 11:01:54;;;;;;;0.00;0.00;;;;;;;;;;4993456;28;20259;-71
2022/09/06 11:04:25;;;;;;;0.00;0.00;;;;;;;;;;4994110;28;20248;-71
2022/09/06 11:06:58;;;;;;;0.00;0.00;;;;;;;;;;5014097;28;20204;-71
2022/09/06 11:09:27;;;;;;;0.00;0.00;;;;;;;;;;4990706;28;20205;-70
2022/09/06 11:12:00;;;;;;;0.00;0.00;;;;;;;;;;5007375;28;20211;-71
2022/09/06 11:14:27;;;;;;;0.00;0.00;;;;;;;;;;4990493;28;20216;-71
2022/09/06 11:16:58;;;;;;;0.00;0.00;;;;;;;;;;4997136;28;20200;-71
2022/09/06 11:19:27;;;;;;;0.00;0.00;;;;;;;;;;4975560;28;20213;-70
2022/09/06 11:22:08;;;;;;;0.00;0.00;;;;;;;;;;4981227;28;20212;-71
2022/09/06 11:24:43;;;;;;;0.00;0.00;;;;;;;;;;5003226;28;20224;-71
2022/09/06 11:27:12;;;;;;;0.00;0.00;;;;;;;;;;4990646;28;20204;-72
2022/09/06 11:29:44;;;;;;;0.00;0.00;;;24.80;99.90;;;;;;4986812;28;20239;-72
2022/09/06 11:32:31;;;;;;;0.00;0.00;;;24.60;99.90;;;;;;4976465;28;20208;-71
2022/09/06 11:35:02;;;;;;;0.00;0.00;;;24.30;99.90;;;;;;4974985;28;20312;-71
2022/09/06 11:37:33;;;;;;;0.00;0.00;;;24.20;99.90;;;;;;4981176;28;20189;-71
2022/09/06 11:40:07;;;;;;;0.00;0.00;;;24.20;99.90;;;;;;4979417;28;20200;-71
2022/09/06 11:42:58;;;;;;;0.00;0.00;;;24.10;99.90;;;;;;4980547;28;20351;-71
2022/09/06 11:45:41;;;;;;;0.00;0.00;;;24.10;99.90;;;;;;4978004;28;20235;-71
2022/09/06 11:48:35;;;;;;;0.00;0.00;;;24.20;99.90;;;;;;5005157;28;20201;-71
2022/09/06 11:51:09;;;;;;;0.00;0.00;;;24.40;99.90;;;;;;4970181;28;20205;-71
2022/09/06 11:54:05;;;;;;;0.00;0.00;;;24.50;99.90;;;;;;4986305;28;20233;-71
2022/09/06 11:56:36;;;;;;;0.00;0.00;;;24.50;99.90;;;;;;4987229;28;20212;-72
2022/09/06 11:59:11;;;;;;;0.00;0.00;;;24.40;99.90;;;;;;5004912;28;20199;-71
2022/09/06 12:01:41;;;;;;;0.00;0.00;;;24.50;99.90;;;;;;4985769;28;20288;-72
2022/09/06 12:04:10;;;;;;;0.00;0.00;;;24.50;99.90;;;;;;4978644;28;20225;-71
2022/09/06 12:06:40;;;;;;;0.00;0.00;;;24.40;99.90;;;;;;4993845;28;20199;-73
2022/09/06 12:09:32;;;;;;;0.00;0.00;;;24.30;99.90;;;;;;5002727;28;20197;-72
2022/09/06 12:12:02;;;;;;;0.00;0.00;;;24.30;99.90;;;;;;4994174;28;20216;-72
2022/09/06 12:14:38;;;;;;;0.00;0.00;;;24.30;99.90;;;;;;5012999;28;20228;-72
2022/09/06 12:17:21;;;;;;;0.00;0.00;;;24.50;99.90;;;;;;4983899;28;20201;-72
2022/09/06 12:19:50;;;;;;;0.00;0.00;;;24.60;99.90;;;;;;4985287;28;20214;-72
2022/09/06 12:22:53;;;;;;;0.00;0.00;;;24.50;99.90;;;;;;4989953;28;20253;-71
2022/09/06 12:25:53;;;;;;;0.00;0.00;;;24.60;99.90;;;;;;4986847;28;20220;-72
2022/09/06 12:28:31;;;;;;;0.00;0.00;;;24.80;99.90;;;;;;4980289;28;20223;-73
2022/09/06 12:30:58;;;;;;;0.00;0.00;;;24.90;99.90;;;;;;4985607;28;20216;-71
2022/09/06 12:33:30;;;;;;;0.00;0.00;;;25.10;99.90;;;;;;5008122;28;20251;-71
2022/09/06 12:36:13;;;;;;;0.00;0.00;;;25.10;99.90;;;;;;4992904;28;20225;-73
2022/09/06 12:38:53;;;;;;;0.00;0.00;;;25.20;99.90;;;;;;5006960;28;20641;-73
2022/09/06 12:41:24;;;;;;;0.00;0.00;;;25.20;99.90;;;;;;4994688;28;20205;-72
2022/09/06 12:43:54;;;;;;;0.00;0.00;;;25.10;99.90;;;;;;4990994;28;20649;-73
2022/09/06 12:46:25;;;;;;;0.00;0.00;;;25.00;99.90;;;;;;4978551;28;20217;-73
2022/09/06 12:49:07;;;;;;;0.00;0.00;;;;;;;;;;4978800;28;20197;-73
2022/09/06 12:51:35;;;;;;;0.00;0.00;;;;;;;;;;4983630;28;20292;-72
2022/09/06 12:54:03;;;;;;;0.00;0.00;;;;;;;;;;4987233;28;20265;-72
2022/09/06 12:56:33;;;;;;;0.00;0.00;;;;;;;;;;4987845;28;20208;-72
2022/09/06 12:59:18;;;;;;;0.00;0.00;;;25.10;99.90;;;;;;4995315;28;20207;-73
2022/09/06 13:02:00;;;;;;;0.00;0.00;;;24.90;99.90;;;;;;4992656;28;20205;-72
2022/09/06 13:04:34;;;;;;;0.00;0.00;;;24.90;99.90;;;;;;4986496;28;20274;-73
2022/09/06 13:07:04;;;;;;;0.00;0.00;;;24.90;99.90;;;;;;4985534;28;20288;-72
2022/09/06 13:09:33;;;;;;;0.00;0.00;;;24.80;99.90;;;;;;4988037;28;20295;-73
2022/09/06 13:12:06;;;;;;;0.00;0.00;;;24.90;99.90;;;;;;4991321;28;20209;-71
2022/09/06 13:14:34;;;;;;;0.00;0.00;;;24.90;99.90;;;;;;5007459;28;20212;-72
2022/09/06 13:17:01;;;;;;;0.00;0.00;;;24.90;99.90;;;;;;4985210;28;20192;-72
2022/09/06 13:19:34;;;;;;;0.00;0.00;;;24.90;99.90;;;;;;4980747;28;20201;-73
2022/09/06 13:22:06;;;;;;;0.00;0.00;;;;;;;;;;4979595;28;20246;-72
2022/09/06 13:24:43;;;;;;;0.00;0.00;;;;;;;;;;4983932;28;20804;-72
2022/09/06 13:27:26;;;;;;;0.00;0.00;;;24.80;99.90;;;;;;4981460;28;20201;-72